sensor_id;sensor_type;location;lat;lon;timestamp;P1;durP1;ratioP1;P2;durP2;ratioP2
76693;SDS011;69667;52.136;5.424;2023-11-21T00:00:04;6.70;;;3.67;;
76693;SDS011;69667;52.136;5.424;2023-11-21T00:02:41;9.63;;;5.38;;
76693;SDS011;69667;52.136;5.424;2023-11-21T00:05:10;6.22;;;3.20;;
76693;SDS011;69667;52.136;5.424;2023-11-21T00:07:41;6.35;;;4.18;;
76693;SDS011;69667;52.136;5.424;2023-11-21T00:10:10;7.10;;;3.15;;
76693;SDS011;69667;52.136;5.424;2023-11-21T00:12:41;5.43;;;3.10;;
76693;SDS011;69667;52.136;5.424;2023-11-21T00:15:10;5.75;;;2.90;;
76693;SDS011;69667;52.136;5.424;2023-11-21T00:17:39;5.15;;;2.33;;
76693;SDS011;69667;52.136;5.424;2023-11-21T00:20:08;6.97;;;3.40;;
76693;SDS011;69667;52.136;5.424;2023-11-21T00:22:40;9.13;;;3.55;;
76693;SDS011;69667;52.136;5.424;2023-11-21T00:25:09;8.52;;;3.08;;
76693;SDS011;69667;52.136;5.424;2023-11-21T00:27:37;8.57;;;4.25;;
76693;SDS011;69667;52.136;5.424;2023-11-21T00:30:06;6.22;;;3.28;;
76693;SDS011;69667;52.136;5.424;2023-11-21T00:32:36;8.82;;;3.78;;
76693;SDS011;69667;52.136;5.424;2023-11-21T00:35:06;6.57;;;3.60;;
76693;SDS011;69667;52.136;5.424;2023-11-21T00:37:34;5.85;;;3.05;;
76693;SDS011;69667;52.136;5.424;2023-11-21T00:40:02;5.28;;;2.45;;
76693;SDS011;69667;52.136;5.424;2023-11-21T00:42:34;8.98;;;3.05;;
76693;SDS011;69667;52.136;5.424;2023-11-21T00:45:02;6.00;;;2.78;;
76693;SDS011;69667;52.136;5.424;2023-11-21T00:47:31;8.07;;;3.53;;
76693;SDS011;69667;52.136;5.424;2023-11-21T00:52:29;4.97;;;3.58;;
76693;SDS011;69667;52.136;5.424;2023-11-21T00:54:57;5.05;;;2.95;;
76693;SDS011;69667;52.136;5.424;2023-11-21T00:57:27;7.07;;;3.05;;
76693;SDS011;69667;52.136;5.424;2023-11-21T00:59:55;4.80;;;2.55;;
76693;SDS011;69667;52.136;5.424;2023-11-21T01:02:23;5.32;;;2.45;;
76693;SDS011;69667;52.136;5.424;2023-11-21T01:04:53;4.15;;;2.50;;
76693;SDS011;69667;52.136;5.424;2023-11-21T01:07:21;6.45;;;2.92;;
76693;SDS011;69667;52.136;5.424;2023-11-21T01:09:50;4.82;;;2.47;;
76693;SDS011;69667;52.136;5.424;2023-11-21T01:12:18;8.23;;;3.15;;
76693;SDS011;69667;52.136;5.424;2023-11-21T01:14:46;5.78;;;2.40;;
76693;SDS011;69667;52.136;5.424;2023-11-21T01:17:14;6.10;;;3.00;;
76693;SDS011;69667;52.136;5.424;2023-11-21T01:19:43;4.47;;;2.15;;
76693;SDS011;69667;52.136;5.424;2023-11-21T01:22:12;3.10;;;2.00;;
76693;SDS011;69667;52.136;5.424;2023-11-21T01:24:40;4.38;;;2.40;;
76693;SDS011;69667;52.136;5.424;2023-11-21T01:27:08;5.03;;;2.95;;
76693;SDS011;69667;52.136;5.424;2023-11-21T01:29:36;4.43;;;2.45;;
76693;SDS011;69667;52.136;5.424;2023-11-21T01:32:05;4.90;;;2.58;;
76693;SDS011;69667;52.136;5.424;2023-11-21T01:34:35;4.40;;;2.42;;
76693;SDS011;69667;52.136;5.424;2023-11-21T01:37:03;5.13;;;3.28;;
76693;SDS011;69667;52.136;5.424;2023-11-21T01:39:32;8.18;;;3.13;;
76693;SDS011;69667;52.136;5.424;2023-11-21T01:42:00;4.20;;;2.55;;
76693;SDS011;69667;52.136;5.424;2023-11-21T01:44:28;4.25;;;2.45;;
76693;SDS011;69667;52.136;5.424;2023-11-21T01:46:57;4.70;;;2.42;;
76693;SDS011;69667;52.136;5.424;2023-11-21T01:49:25;5.15;;;2.20;;
76693;SDS011;69667;52.136;5.424;2023-11-21T01:51:53;4.72;;;2.58;;
76693;SDS011;69667;52.136;5.424;2023-11-21T01:54:22;3.80;;;2.10;;
76693;SDS011;69667;52.136;5.424;2023-11-21T01:56:50;3.70;;;2.53;;
76693;SDS011;69667;52.136;5.424;2023-11-21T01:59:19;13.50;;;2.97;;
76693;SDS011;69667;52.136;5.424;2023-11-21T02:01:49;4.78;;;2.42;;
76693;SDS011;69667;52.136;5.424;2023-11-21T02:04:18;4.05;;;2.30;;
76693;SDS011;69667;52.136;5.424;2023-11-21T02:06:48;9.10;;;2.22;;
76693;SDS011;69667;52.136;5.424;2023-11-21T02:09:27;5.03;;;2.78;;
76693;SDS011;69667;52.136;5.424;2023-11-21T02:11:57;4.75;;;2.10;;
76693;SDS011;69667;52.136;5.424;2023-11-21T02:14:26;3.17;;;1.83;;
76693;SDS011;69667;52.136;5.424;2023-11-21T02:16:55;5.32;;;2.40;;
76693;SDS011;69667;52.136;5.424;2023-11-21T02:19:28;3.85;;;1.75;;
76693;SDS011;69667;52.136;5.424;2023-11-21T02:21:57;3.80;;;2.10;;
76693;SDS011;69667;52.136;5.424;2023-11-21T02:24:33;5.43;;;2.95;;
76693;SDS011;69667;52.136;5.424;2023-11-21T02:27:02;6.20;;;2.53;;
76693;SDS011;69667;52.136;5.424;2023-11-21T02:29:30;3.70;;;1.80;;
76693;SDS011;69667;52.136;5.424;2023-11-21T02:31:59;4.15;;;1.92;;
76693;SDS011;69667;52.136;5.424;2023-11-21T02:34:27;6.57;;;2.92;;
76693;SDS011;69667;52.136;5.424;2023-11-21T02:36:55;9.70;;;3.13;;
76693;SDS011;69667;52.136;5.424;2023-11-21T02:39:24;4.90;;;2.30;;
76693;SDS011;69667;52.136;5.424;2023-11-21T02:41:52;4.30;;;2.97;;
76693;SDS011;69667;52.136;5.424;2023-11-21T02:44:20;3.17;;;2.33;;
76693;SDS011;69667;52.136;5.424;2023-11-21T02:46:49;4.65;;;2.90;;
76693;SDS011;69667;52.136;5.424;2023-11-21T02:49:17;6.82;;;2.33;;
76693;SDS011;69667;52.136;5.424;2023-11-21T02:51:45;8.25;;;2.47;;
76693;SDS011;69667;52.136;5.424;2023-11-21T02:54:13;3.95;;;2.70;;
76693;SDS011;69667;52.136;5.424;2023-11-21T02:56:46;4.55;;;2.40;;
76693;SDS011;69667;52.136;5.424;2023-11-21T02:59:14;5.35;;;2.63;;
76693;SDS011;69667;52.136;5.424;2023-11-21T03:01:42;6.10;;;2.47;;
76693;SDS011;69667;52.136;5.424;2023-11-21T03:04:11;3.38;;;1.75;;
76693;SDS011;69667;52.136;5.424;2023-11-21T03:06:45;3.60;;;2.05;;
76693;SDS011;69667;52.136;5.424;2023-11-21T03:09:13;5.57;;;2.40;;
76693;SDS011;69667;52.136;5.424;2023-11-21T03:11:41;4.22;;;2.20;;
76693;SDS011;69667;52.136;5.424;2023-11-21T03:14:09;5.05;;;2.72;;
76693;SDS011;69667;52.136;5.424;2023-11-21T03:16:38;4.97;;;1.85;;
76693;SDS011;69667;52.136;5.424;2023-11-21T03:19:08;5.97;;;2.38;;
76693;SDS011;69667;52.136;5.424;2023-11-21T03:21:36;3.28;;;1.63;;
76693;SDS011;69667;52.136;5.424;2023-11-21T03:24:04;4.55;;;2.53;;
76693;SDS011;69667;52.136;5.424;2023-11-21T03:26:34;3.70;;;2.05;;
76693;SDS011;69667;52.136;5.424;2023-11-21T03:29:04;3.28;;;1.58;;
76693;SDS011;69667;52.136;5.424;2023-11-21T03:31:32;4.95;;;2.70;;
76693;SDS011;69667;52.136;5.424;2023-11-21T03:34:00;2.78;;;1.80;;
76693;SDS011;69667;52.136;5.424;2023-11-21T03:36:29;4.13;;;1.80;;
76693;SDS011;69667;52.136;5.424;2023-11-21T03:38:57;6.25;;;2.53;;
76693;SDS011;69667;52.136;5.424;2023-11-21T03:41:25;6.40;;;2.60;;
76693;SDS011;69667;52.136;5.424;2023-11-21T03:43:54;4.70;;;2.80;;
76693;SDS011;69667;52.136;5.424;2023-11-21T03:46:22;4.90;;;2.58;;
76693;SDS011;69667;52.136;5.424;2023-11-21T03:48:50;3.92;;;1.85;;
76693;SDS011;69667;52.136;5.424;2023-11-21T03:51:19;7.47;;;2.33;;
76693;SDS011;69667;52.136;5.424;2023-11-21T03:53:47;4.70;;;1.98;;
76693;SDS011;69667;52.136;5.424;2023-11-21T03:56:15;5.68;;;2.22;;
76693;SDS011;69667;52.136;5.424;2023-11-21T03:58:43;4.40;;;2.03;;
76693;SDS011;69667;52.136;5.424;2023-11-21T04:01:12;4.90;;;2.47;;
76693;SDS011;69667;52.136;5.424;2023-11-21T04:03:48;3.97;;;2.50;;
76693;SDS011;69667;52.136;5.424;2023-11-21T04:06:17;4.85;;;2.20;;
76693;SDS011;69667;52.136;5.424;2023-11-21T04:08:45;8.23;;;2.03;;
76693;SDS011;69667;52.136;5.424;2023-11-21T04:11:14;6.90;;;2.17;;
76693;SDS011;69667;52.136;5.424;2023-11-21T04:13:42;6.03;;;3.05;;
76693;SDS011;69667;52.136;5.424;2023-11-21T04:16:11;8.50;;;2.00;;
76693;SDS011;69667;52.136;5.424;2023-11-21T04:18:39;4.93;;;2.20;;
76693;SDS011;69667;52.136;5.424;2023-11-21T04:21:08;7.15;;;2.67;;
76693;SDS011;69667;52.136;5.424;2023-11-21T04:23:36;3.38;;;1.80;;
76693;SDS011;69667;52.136;5.424;2023-11-21T04:26:04;7.10;;;2.28;;
76693;SDS011;69667;52.136;5.424;2023-11-21T04:28:32;4.35;;;2.28;;
76693;SDS011;69667;52.136;5.424;2023-11-21T04:31:01;6.10;;;2.70;;
76693;SDS011;69667;52.136;5.424;2023-11-21T04:33:30;7.13;;;2.72;;
76693;SDS011;69667;52.136;5.424;2023-11-21T04:35:58;4.78;;;2.45;;
76693;SDS011;69667;52.136;5.424;2023-11-21T04:38:26;4.45;;;2.20;;
76693;SDS011;69667;52.136;5.424;2023-11-21T04:40:55;5.68;;;2.83;;
76693;SDS011;69667;52.136;5.424;2023-11-21T04:43:24;4.40;;;2.80;;
76693;SDS011;69667;52.136;5.424;2023-11-21T04:45:52;3.40;;;2.05;;
76693;SDS011;69667;52.136;5.424;2023-11-21T04:48:22;4.00;;;2.08;;
76693;SDS011;69667;52.136;5.424;2023-11-21T04:50:50;3.75;;;1.95;;
76693;SDS011;69667;52.136;5.424;2023-11-21T04:53:18;5.90;;;2.90;;
76693;SDS011;69667;52.136;5.424;2023-11-21T04:55:47;9.23;;;3.22;;
76693;SDS011;69667;52.136;5.424;2023-11-21T04:58:15;6.05;;;2.83;;
76693;SDS011;69667;52.136;5.424;2023-11-21T05:00:44;4.95;;;2.83;;
76693;SDS011;69667;52.136;5.424;2023-11-21T05:03:12;5.40;;;2.70;;
76693;SDS011;69667;52.136;5.424;2023-11-21T05:05:41;8.15;;;3.40;;
76693;SDS011;69667;52.136;5.424;2023-11-21T05:08:09;5.32;;;2.60;;
76693;SDS011;69667;52.136;5.424;2023-11-21T05:10:37;6.15;;;3.25;;
76693;SDS011;69667;52.136;5.424;2023-11-21T05:13:06;6.07;;;2.38;;
76693;SDS011;69667;52.136;5.424;2023-11-21T05:15:37;7.57;;;2.90;;
76693;SDS011;69667;52.136;5.424;2023-11-21T05:20:34;6.78;;;1.90;;
76693;SDS011;69667;52.136;5.424;2023-11-21T05:23:02;5.30;;;2.38;;
76693;SDS011;69667;52.136;5.424;2023-11-21T05:25:31;5.00;;;1.75;;
76693;SDS011;69667;52.136;5.424;2023-11-21T05:27:59;5.90;;;2.30;;
76693;SDS011;69667;52.136;5.424;2023-11-21T05:30:28;3.60;;;1.80;;
76693;SDS011;69667;52.136;5.424;2023-11-21T05:32:57;4.13;;;2.65;;
76693;SDS011;69667;52.136;5.424;2023-11-21T05:35:25;10.52;;;2.60;;
76693;SDS011;69667;52.136;5.424;2023-11-21T05:37:53;5.00;;;2.40;;
76693;SDS011;69667;52.136;5.424;2023-11-21T05:40:22;4.97;;;3.15;;
76693;SDS011;69667;52.136;5.424;2023-11-21T05:42:50;4.15;;;2.53;;
76693;SDS011;69667;52.136;5.424;2023-11-21T05:45:19;7.60;;;2.72;;
76693;SDS011;69667;52.136;5.424;2023-11-21T05:47:47;7.95;;;2.22;;
76693;SDS011;69667;52.136;5.424;2023-11-21T05:50:16;7.05;;;2.83;;
76693;SDS011;69667;52.136;5.424;2023-11-21T05:52:46;4.15;;;1.90;;
76693;SDS011;69667;52.136;5.424;2023-11-21T05:55:15;5.30;;;3.00;;
76693;SDS011;69667;52.136;5.424;2023-11-21T05:57:44;4.13;;;1.92;;
76693;SDS011;69667;52.136;5.424;2023-11-21T06:00:12;3.42;;;1.63;;
76693;SDS011;69667;52.136;5.424;2023-11-21T06:02:49;3.55;;;2.05;;
76693;SDS011;69667;52.136;5.424;2023-11-21T06:05:22;5.20;;;2.20;;
76693;SDS011;69667;52.136;5.424;2023-11-21T06:07:53;6.38;;;3.42;;
76693;SDS011;69667;52.136;5.424;2023-11-21T06:10:23;4.05;;;2.08;;
76693;SDS011;69667;52.136;5.424;2023-11-21T06:12:52;6.68;;;2.83;;
76693;SDS011;69667;52.136;5.424;2023-11-21T06:15:20;7.35;;;2.97;;
76693;SDS011;69667;52.136;5.424;2023-11-21T06:17:50;4.78;;;2.47;;
76693;SDS011;69667;52.136;5.424;2023-11-21T06:20:20;5.05;;;2.55;;
76693;SDS011;69667;52.136;5.424;2023-11-21T06:22:50;6.93;;;2.58;;
76693;SDS011;69667;52.136;5.424;2023-11-21T06:25:19;4.82;;;2.45;;
76693;SDS011;69667;52.136;5.424;2023-11-21T06:27:47;2.80;;;1.65;;
76693;SDS011;69667;52.136;5.424;2023-11-21T06:30:16;5.85;;;2.60;;
76693;SDS011;69667;52.136;5.424;2023-11-21T06:32:47;6.47;;;2.60;;
76693;SDS011;69667;52.136;5.424;2023-11-21T06:35:17;4.15;;;2.40;;
76693;SDS011;69667;52.136;5.424;2023-11-21T06:37:45;3.80;;;2.35;;
76693;SDS011;69667;52.136;5.424;2023-11-21T06:40:17;10.73;;;3.30;;
76693;SDS011;69667;52.136;5.424;2023-11-21T06:42:47;6.15;;;3.22;;
76693;SDS011;69667;52.136;5.424;2023-11-21T06:45:16;4.72;;;2.60;;
76693;SDS011;69667;52.136;5.424;2023-11-21T06:50:13;4.35;;;1.85;;
76693;SDS011;69667;52.136;5.424;2023-11-21T06:52:41;6.57;;;2.83;;
76693;SDS011;69667;52.136;5.424;2023-11-21T06:55:10;3.90;;;2.25;;
76693;SDS011;69667;52.136;5.424;2023-11-21T06:57:38;7.38;;;2.50;;
76693;SDS011;69667;52.136;5.424;2023-11-21T07:00:07;5.30;;;2.67;;
76693;SDS011;69667;52.136;5.424;2023-11-21T07:02:36;4.28;;;1.55;;
76693;SDS011;69667;52.136;5.424;2023-11-21T07:05:06;4.40;;;2.17;;
76693;SDS011;69667;52.136;5.424;2023-11-21T07:07:35;5.68;;;2.03;;
76693;SDS011;69667;52.136;5.424;2023-11-21T07:10:04;6.43;;;2.50;;
76693;SDS011;69667;52.136;5.424;2023-11-21T07:12:33;4.60;;;2.53;;
76693;SDS011;69667;52.136;5.424;2023-11-21T07:15:03;4.93;;;2.13;;
76693;SDS011;69667;52.136;5.424;2023-11-21T07:17:34;3.92;;;2.28;;
76693;SDS011;69667;52.136;5.424;2023-11-21T07:20:07;3.53;;;1.85;;
76693;SDS011;69667;52.136;5.424;2023-11-21T07:22:36;3.05;;;1.63;;
76693;SDS011;69667;52.136;5.424;2023-11-21T07:25:04;4.20;;;2.20;;
76693;SDS011;69667;52.136;5.424;2023-11-21T07:27:34;6.13;;;2.47;;
76693;SDS011;69667;52.136;5.424;2023-11-21T07:30:03;4.45;;;2.20;;
76693;SDS011;69667;52.136;5.424;2023-11-21T07:32:32;10.02;;;2.75;;
76693;SDS011;69667;52.136;5.424;2023-11-21T07:35:01;5.20;;;1.73;;
76693;SDS011;69667;52.136;5.424;2023-11-21T07:37:29;3.92;;;1.95;;
76693;SDS011;69667;52.136;5.424;2023-11-21T07:39:57;5.28;;;2.30;;
76693;SDS011;69667;52.136;5.424;2023-11-21T07:42:26;7.93;;;3.00;;
76693;SDS011;69667;52.136;5.424;2023-11-21T07:44:54;8.50;;;2.38;;
76693;SDS011;69667;52.136;5.424;2023-11-21T07:47:23;3.55;;;2.00;;
76693;SDS011;69667;52.136;5.424;2023-11-21T07:49:54;3.47;;;1.75;;
76693;SDS011;69667;52.136;5.424;2023-11-21T07:52:23;8.40;;;2.33;;
76693;SDS011;69667;52.136;5.424;2023-11-21T07:54:51;4.65;;;2.58;;
76693;SDS011;69667;52.136;5.424;2023-11-21T07:57:19;4.07;;;1.55;;
76693;SDS011;69667;52.136;5.424;2023-11-21T07:59:48;6.00;;;1.75;;
76693;SDS011;69667;52.136;5.424;2023-11-21T08:02:16;3.25;;;1.52;;
76693;SDS011;69667;52.136;5.424;2023-11-21T08:04:45;3.63;;;1.73;;
76693;SDS011;69667;52.136;5.424;2023-11-21T08:07:17;3.67;;;1.73;;
76693;SDS011;69667;52.136;5.424;2023-11-21T08:09:45;17.55;;;2.67;;
76693;SDS011;69667;52.136;5.424;2023-11-21T08:12:16;5.72;;;2.05;;
76693;SDS011;69667;52.136;5.424;2023-11-21T08:14:45;5.90;;;2.42;;
76693;SDS011;69667;52.136;5.424;2023-11-21T08:17:13;3.17;;;1.75;;
76693;SDS011;69667;52.136;5.424;2023-11-21T08:19:44;3.47;;;2.17;;
76693;SDS011;69667;52.136;5.424;2023-11-21T08:22:16;6.22;;;2.22;;
76693;SDS011;69667;52.136;5.424;2023-11-21T08:24:45;2.97;;;1.70;;
76693;SDS011;69667;52.136;5.424;2023-11-21T08:27:13;4.75;;;1.80;;
76693;SDS011;69667;52.136;5.424;2023-11-21T08:29:43;3.03;;;1.75;;
76693;SDS011;69667;52.136;5.424;2023-11-21T08:32:11;3.55;;;1.60;;
76693;SDS011;69667;52.136;5.424;2023-11-21T08:34:39;3.83;;;1.77;;
76693;SDS011;69667;52.136;5.424;2023-11-21T08:37:10;3.15;;;1.50;;
76693;SDS011;69667;52.136;5.424;2023-11-21T08:42:09;3.35;;;1.67;;
76693;SDS011;69667;52.136;5.424;2023-11-21T08:44:37;2.80;;;1.83;;
76693;SDS011;69667;52.136;5.424;2023-11-21T08:47:06;2.85;;;1.63;;
76693;SDS011;69667;52.136;5.424;2023-11-21T08:49:35;5.07;;;1.95;;
76693;SDS011;69667;52.136;5.424;2023-11-21T08:52:03;5.93;;;2.28;;
76693;SDS011;69667;52.136;5.424;2023-11-21T08:54:32;10.02;;;2.33;;
76693;SDS011;69667;52.136;5.424;2023-11-21T08:57:01;5.03;;;2.38;;
76693;SDS011;69667;52.136;5.424;2023-11-21T08:59:29;5.25;;;2.25;;
76693;SDS011;69667;52.136;5.424;2023-11-21T09:01:57;3.80;;;1.58;;
76693;SDS011;69667;52.136;5.424;2023-11-21T09:04:26;3.78;;;1.85;;
76693;SDS011;69667;52.136;5.424;2023-11-21T09:06:54;11.85;;;3.00;;
76693;SDS011;69667;52.136;5.424;2023-11-21T09:09:22;3.80;;;2.17;;
76693;SDS011;69667;52.136;5.424;2023-11-21T09:11:51;7.00;;;2.85;;
76693;SDS011;69667;52.136;5.424;2023-11-21T09:14:19;4.07;;;2.15;;
76693;SDS011;69667;52.136;5.424;2023-11-21T09:16:48;5.85;;;2.35;;
76693;SDS011;69667;52.136;5.424;2023-11-21T09:19:17;6.13;;;2.42;;
76693;SDS011;69667;52.136;5.424;2023-11-21T09:21:46;5.93;;;3.47;;
76693;SDS011;69667;52.136;5.424;2023-11-21T09:24:14;7.15;;;4.07;;
76693;SDS011;69667;52.136;5.424;2023-11-21T09:26:43;7.60;;;3.15;;
76693;SDS011;69667;52.136;5.424;2023-11-21T09:29:12;6.20;;;2.60;;
76693;SDS011;69667;52.136;5.424;2023-11-21T09:31:40;8.18;;;3.92;;
76693;SDS011;69667;52.136;5.424;2023-11-21T09:34:11;6.85;;;2.88;;
76693;SDS011;69667;52.136;5.424;2023-11-21T09:36:39;10.02;;;4.20;;
76693;SDS011;69667;52.136;5.424;2023-11-21T09:39:08;6.68;;;3.25;;
76693;SDS011;69667;52.136;5.424;2023-11-21T09:47:33;7.90;;;4.03;;
76693;SDS011;69667;52.136;5.424;2023-11-21T09:50:06;6.80;;;3.05;;
76693;SDS011;69667;52.136;5.424;2023-11-21T09:53:01;5.15;;;2.17;;
76693;SDS011;69667;52.136;5.424;2023-11-21T09:55:37;6.55;;;3.13;;
76693;SDS011;69667;52.136;5.424;2023-11-21T09:58:07;6.43;;;2.58;;
76693;SDS011;69667;52.136;5.424;2023-11-21T10:00:40;5.78;;;2.80;;
76693;SDS011;69667;52.136;5.424;2023-11-21T10:03:12;7.60;;;3.78;;
76693;SDS011;69667;52.136;5.424;2023-11-21T10:08:14;6.78;;;3.50;;
76693;SDS011;69667;52.136;5.424;2023-11-21T10:10:43;7.03;;;2.58;;
76693;SDS011;69667;52.136;5.424;2023-11-21T10:13:13;7.38;;;2.90;;
76693;SDS011;69667;52.136;5.424;2023-11-21T10:15:47;6.18;;;2.67;;
76693;SDS011;69667;52.136;5.424;2023-11-21T10:18:18;6.28;;;2.72;;
76693;SDS011;69667;52.136;5.424;2023-11-21T10:20:46;6.20;;;2.92;;
76693;SDS011;69667;52.136;5.424;2023-11-21T10:23:21;3.35;;;1.67;;
76693;SDS011;69667;52.136;5.424;2023-11-21T10:25:51;5.45;;;2.72;;
76693;SDS011;69667;52.136;5.424;2023-11-21T10:28:21;5.40;;;1.95;;
76693;SDS011;69667;52.136;5.424;2023-11-21T10:30:49;3.58;;;1.58;;
76693;SDS011;69667;52.136;5.424;2023-11-21T10:33:26;7.50;;;3.20;;
76693;SDS011;69667;52.136;5.424;2023-11-21T10:35:56;4.90;;;2.25;;
76693;SDS011;69667;52.136;5.424;2023-11-21T10:38:24;6.07;;;2.53;;
76693;SDS011;69667;52.136;5.424;2023-11-21T10:40:54;6.93;;;2.83;;
76693;SDS011;69667;52.136;5.424;2023-11-21T10:43:25;6.80;;;3.03;;
76693;SDS011;69667;52.136;5.424;2023-11-21T10:45:57;7.32;;;3.15;;
76693;SDS011;69667;52.136;5.424;2023-11-21T10:48:26;6.90;;;2.53;;
76693;SDS011;69667;52.136;5.424;2023-11-21T10:50:55;5.10;;;2.47;;
76693;SDS011;69667;52.136;5.424;2023-11-21T10:53:28;5.82;;;2.83;;
76693;SDS011;69667;52.136;5.424;2023-11-21T10:56:01;4.47;;;2.08;;
76693;SDS011;69667;52.136;5.424;2023-11-21T10:58:34;3.85;;;1.85;;
76693;SDS011;69667;52.136;5.424;2023-11-21T11:01:05;6.40;;;2.10;;
76693;SDS011;69667;52.136;5.424;2023-11-21T11:03:35;6.43;;;2.38;;
76693;SDS011;69667;52.136;5.424;2023-11-21T11:06:04;3.58;;;2.28;;
76693;SDS011;69667;52.136;5.424;2023-11-21T11:08:39;6.97;;;3.30;;
76693;SDS011;69667;52.136;5.424;2023-11-21T11:11:10;7.28;;;3.00;;
76693;SDS011;69667;52.136;5.424;2023-11-21T11:13:39;7.72;;;2.65;;
76693;SDS011;69667;52.136;5.424;2023-11-21T11:16:14;6.43;;;2.92;;
76693;SDS011;69667;52.136;5.424;2023-11-21T11:18:45;6.03;;;2.72;;
76693;SDS011;69667;52.136;5.424;2023-11-21T11:21:21;8.70;;;3.17;;
76693;SDS011;69667;52.136;5.424;2023-11-21T11:27:10;6.22;;;3.10;;
76693;SDS011;69667;52.136;5.424;2023-11-21T11:29:44;7.95;;;3.28;;
76693;SDS011;69667;52.136;5.424;2023-11-21T11:32:43;6.65;;;2.70;;
76693;SDS011;69667;52.136;5.424;2023-11-21T11:35:25;4.82;;;2.28;;
76693;SDS011;69667;52.136;5.424;2023-11-21T11:38:01;3.35;;;2.00;;
76693;SDS011;69667;52.136;5.424;2023-11-21T11:40:44;6.88;;;3.28;;
76693;SDS011;69667;52.136;5.424;2023-11-21T11:43:14;6.63;;;3.20;;
76693;SDS011;69667;52.136;5.424;2023-11-21T11:45:55;6.45;;;2.85;;
76693;SDS011;69667;52.136;5.424;2023-11-21T11:48:26;8.07;;;3.05;;
76693;SDS011;69667;52.136;5.424;2023-11-21T11:51:01;7.28;;;3.83;;
76693;SDS011;69667;52.136;5.424;2023-11-21T11:53:37;9.07;;;3.42;;
76693;SDS011;69667;52.136;5.424;2023-11-21T11:56:27;6.45;;;3.10;;
76693;SDS011;69667;52.136;5.424;2023-11-21T11:58:59;8.35;;;4.05;;
76693;SDS011;69667;52.136;5.424;2023-11-21T12:01:34;5.88;;;3.20;;
76693;SDS011;69667;52.136;5.424;2023-11-21T12:06:44;8.73;;;4.03;;
76693;SDS011;69667;52.136;5.424;2023-11-21T12:09:22;8.55;;;4.30;;
76693;SDS011;69667;52.136;5.424;2023-11-21T12:11:54;8.77;;;3.90;;
76693;SDS011;69667;52.136;5.424;2023-11-21T12:14:23;8.27;;;4.03;;
76693;SDS011;69667;52.136;5.424;2023-11-21T12:19:21;6.65;;;4.00;;
76693;SDS011;69667;52.136;5.424;2023-11-21T12:21:49;6.93;;;3.47;;
76693;SDS011;69667;52.136;5.424;2023-11-21T12:24:17;4.88;;;2.22;;
76693;SDS011;69667;52.136;5.424;2023-11-21T12:26:46;9.20;;;3.88;;
76693;SDS011;69667;52.136;5.424;2023-11-21T12:29:14;8.43;;;3.85;;
76693;SDS011;69667;52.136;5.424;2023-11-21T12:31:43;11.55;;;4.28;;
76693;SDS011;69667;52.136;5.424;2023-11-21T12:34:13;6.30;;;3.30;;
76693;SDS011;69667;52.136;5.424;2023-11-21T12:36:41;9.52;;;4.00;;
76693;SDS011;69667;52.136;5.424;2023-11-21T12:39:09;8.40;;;4.00;;
76693;SDS011;69667;52.136;5.424;2023-11-21T12:41:37;8.98;;;4.50;;
76693;SDS011;69667;52.136;5.424;2023-11-21T12:44:09;8.68;;;3.67;;
76693;SDS011;69667;52.136;5.424;2023-11-21T12:46:43;7.28;;;3.70;;
76693;SDS011;69667;52.136;5.424;2023-11-21T12:49:12;6.38;;;3.20;;
76693;SDS011;69667;52.136;5.424;2023-11-21T12:51:47;7.72;;;4.32;;
76693;SDS011;69667;52.136;5.424;2023-11-21T12:54:15;6.70;;;2.95;;
76693;SDS011;69667;52.136;5.424;2023-11-21T12:56:45;8.85;;;4.22;;
76693;SDS011;69667;52.136;5.424;2023-11-21T12:59:16;9.48;;;4.53;;
76693;SDS011;69667;52.136;5.424;2023-11-21T13:01:45;10.10;;;4.25;;
76693;SDS011;69667;52.136;5.424;2023-11-21T13:04:16;8.98;;;3.75;;
76693;SDS011;69667;52.136;5.424;2023-11-21T13:06:45;7.32;;;3.28;;
76693;SDS011;69667;52.136;5.424;2023-11-21T13:09:13;8.52;;;3.53;;
76693;SDS011;69667;52.136;5.424;2023-11-21T13:11:49;10.77;;;3.67;;
76693;SDS011;69667;52.136;5.424;2023-11-21T13:14:17;9.68;;;3.53;;
76693;SDS011;69667;52.136;5.424;2023-11-21T13:16:45;8.05;;;3.92;;
76693;SDS011;69667;52.136;5.424;2023-11-21T13:19:13;4.75;;;2.90;;
76693;SDS011;69667;52.136;5.424;2023-11-21T13:21:42;6.82;;;2.60;;
76693;SDS011;69667;52.136;5.424;2023-11-21T13:24:10;4.35;;;1.77;;
76693;SDS011;69667;52.136;5.424;2023-11-21T13:26:39;5.18;;;1.88;;
76693;SDS011;69667;52.136;5.424;2023-11-21T13:29:07;4.18;;;1.60;;
76693;SDS011;69667;52.136;5.424;2023-11-21T13:31:36;4.03;;;1.55;;
76693;SDS011;69667;52.136;5.424;2023-11-21T13:34:06;4.03;;;1.13;;
76693;SDS011;69667;52.136;5.424;2023-11-21T13:36:35;3.88;;;1.60;;
76693;SDS011;69667;52.136;5.424;2023-11-21T13:39:04;3.25;;;1.30;;
76693;SDS011;69667;52.136;5.424;2023-11-21T13:41:35;1.70;;;0.77;;
76693;SDS011;69667;52.136;5.424;2023-11-21T13:44:06;3.25;;;1.60;;
76693;SDS011;69667;52.136;5.424;2023-11-21T13:46:54;3.88;;;1.63;;
76693;SDS011;69667;52.136;5.424;2023-11-21T13:49:25;5.47;;;1.88;;
76693;SDS011;69667;52.136;5.424;2023-11-21T13:51:54;5.32;;;1.98;;
76693;SDS011;69667;52.136;5.424;2023-11-21T13:54:22;5.43;;;2.58;;
76693;SDS011;69667;52.136;5.424;2023-11-21T13:56:52;6.63;;;2.55;;
76693;SDS011;69667;52.136;5.424;2023-11-21T13:59:22;6.78;;;2.67;;
76693;SDS011;69667;52.136;5.424;2023-11-21T14:01:54;7.07;;;3.00;;
76693;SDS011;69667;52.136;5.424;2023-11-21T14:04:25;7.57;;;3.00;;
76693;SDS011;69667;52.136;5.424;2023-11-21T14:06:56;5.75;;;3.10;;
76693;SDS011;69667;52.136;5.424;2023-11-21T14:09:28;12.00;;;4.93;;
76693;SDS011;69667;52.136;5.424;2023-11-21T14:12:03;9.55;;;3.90;;
76693;SDS011;69667;52.136;5.424;2023-11-21T14:14:33;7.55;;;3.42;;
76693;SDS011;69667;52.136;5.424;2023-11-21T14:17:01;11.00;;;3.65;;
76693;SDS011;69667;52.136;5.424;2023-11-21T14:19:34;6.97;;;3.60;;
76693;SDS011;69667;52.136;5.424;2023-11-21T14:22:07;8.65;;;4.30;;
76693;SDS011;69667;52.136;5.424;2023-11-21T14:24:37;7.97;;;3.17;;
76693;SDS011;69667;52.136;5.424;2023-11-21T14:27:11;11.05;;;4.82;;
76693;SDS011;69667;52.136;5.424;2023-11-21T14:29:39;8.05;;;3.80;;
76693;SDS011;69667;52.136;5.424;2023-11-21T14:32:10;6.70;;;3.22;;
76693;SDS011;69667;52.136;5.424;2023-11-21T14:34:39;8.25;;;3.55;;
76693;SDS011;69667;52.136;5.424;2023-11-21T14:37:10;11.35;;;4.40;;
76693;SDS011;69667;52.136;5.424;2023-11-21T14:39:41;9.05;;;4.00;;
76693;SDS011;69667;52.136;5.424;2023-11-21T14:42:13;8.85;;;4.05;;
76693;SDS011;69667;52.136;5.424;2023-11-21T14:44:51;9.85;;;4.07;;
76693;SDS011;69667;52.136;5.424;2023-11-21T14:47:22;9.07;;;4.10;;
76693;SDS011;69667;52.136;5.424;2023-11-21T14:49:54;11.60;;;5.13;;
76693;SDS011;69667;52.136;5.424;2023-11-21T14:52:24;8.68;;;4.20;;
76693;SDS011;69667;52.136;5.424;2023-11-21T14:55:03;9.70;;;4.78;;
76693;SDS011;69667;52.136;5.424;2023-11-21T14:57:50;7.97;;;3.78;;
76693;SDS011;69667;52.136;5.424;2023-11-21T15:00:20;12.50;;;4.32;;
76693;SDS011;69667;52.136;5.424;2023-11-21T15:03:12;10.95;;;5.13;;
76693;SDS011;69667;52.136;5.424;2023-11-21T15:06:02;10.82;;;4.43;;
76693;SDS011;69667;52.136;5.424;2023-11-21T15:09:06;11.23;;;4.07;;
76693;SDS011;69667;52.136;5.424;2023-11-21T15:11:35;12.80;;;4.85;;
76693;SDS011;69667;52.136;5.424;2023-11-21T15:14:05;10.63;;;4.10;;
76693;SDS011;69667;52.136;5.424;2023-11-21T15:16:34;9.40;;;4.20;;
76693;SDS011;69667;52.136;5.424;2023-11-21T15:19:11;10.25;;;5.43;;
76693;SDS011;69667;52.136;5.424;2023-11-21T15:21:45;8.48;;;4.25;;
76693;SDS011;69667;52.136;5.424;2023-11-21T15:24:13;8.90;;;4.53;;
76693;SDS011;69667;52.136;5.424;2023-11-21T15:26:41;7.22;;;3.80;;
76693;SDS011;69667;52.136;5.424;2023-11-21T15:29:10;7.60;;;3.20;;
76693;SDS011;69667;52.136;5.424;2023-11-21T15:31:38;7.93;;;3.78;;